sensor_id;sensor_type;location;lat;lon;timestamp;P1;durP1;ratioP1;P2;durP2;ratioP2
24173;SDS011;12324;48.146;11.502;2024-02-15T00:02:23;7.57;;;2.67;;
24173;SDS011;12324;48.146;11.502;2024-02-15T00:04:50;4.63;;;1.95;;
24173;SDS011;12324;48.146;11.502;2024-02-15T00:07:17;3.97;;;2.15;;
24173;SDS011;12324;48.146;11.502;2024-02-15T00:09:48;5.63;;;2.20;;
24173;SDS011;12324;48.146;11.502;2024-02-15T00:12:15;4.70;;;2.28;;
24173;SDS011;12324;48.146;11.502;2024-02-15T00:14:42;6.40;;;2.22;;
24173;SDS011;12324;48.146;11.502;2024-02-15T00:17:10;5.28;;;2.47;;
24173;SDS011;12324;48.146;11.502;2024-02-15T00:19:38;4.60;;;2.15;;
24173;SDS011;12324;48.146;11.502;2024-02-15T00:22:08;4.32;;;2.25;;
24173;SDS011;12324;48.146;11.502;2024-02-15T00:24:36;7.63;;;2.42;;
24173;SDS011;12324;48.146;11.502;2024-02-15T00:27:04;4.65;;;2.10;;
24173;SDS011;12324;48.146;11.502;2024-02-15T00:29:31;7.68;;;1.80;;
24173;SDS011;12324;48.146;11.502;2024-02-15T00:32:00;4.25;;;2.20;;
24173;SDS011;12324;48.146;11.502;2024-02-15T00:34:30;4.90;;;2.08;;
24173;SDS011;12324;48.146;11.502;2024-02-15T00:36:58;6.38;;;2.15;;
24173;SDS011;12324;48.146;11.502;2024-02-15T00:39:25;5.97;;;2.00;;
24173;SDS011;12324;48.146;11.502;2024-02-15T00:41:52;6.07;;;2.25;;
24173;SDS011;12324;48.146;11.502;2024-02-15T00:44:22;2.90;;;1.63;;
24173;SDS011;12324;48.146;11.502;2024-02-15T00:46:49;3.60;;;1.92;;
24173;SDS011;12324;48.146;11.502;2024-02-15T00:49:16;4.93;;;1.98;;
24173;SDS011;12324;48.146;11.502;2024-02-15T00:51:47;4.50;;;1.77;;
24173;SDS011;12324;48.146;11.502;2024-02-15T00:54:15;6.45;;;2.03;;
24173;SDS011;12324;48.146;11.502;2024-02-15T00:56:42;4.57;;;2.00;;
24173;SDS011;12324;48.146;11.502;2024-02-15T00:59:10;7.63;;;2.00;;
24173;SDS011;12324;48.146;11.502;2024-02-15T01:01:37;3.42;;;1.92;;
24173;SDS011;12324;48.146;11.502;2024-02-15T01:04:04;4.28;;;1.83;;
24173;SDS011;12324;48.146;11.502;2024-02-15T01:06:32;4.78;;;2.10;;
24173;SDS011;12324;48.146;11.502;2024-02-15T01:08:59;5.38;;;1.85;;
24173;SDS011;12324;48.146;11.502;2024-02-15T01:11:30;3.72;;;2.03;;
24173;SDS011;12324;48.146;11.502;2024-02-15T01:14:01;4.70;;;1.90;;
24173;SDS011;12324;48.146;11.502;2024-02-15T01:16:29;3.88;;;1.90;;
24173;SDS011;12324;48.146;11.502;2024-02-15T01:18:56;5.28;;;2.00;;
24173;SDS011;12324;48.146;11.502;2024-02-15T01:21:24;3.97;;;2.00;;
24173;SDS011;12324;48.146;11.502;2024-02-15T01:23:51;4.15;;;1.83;;
24173;SDS011;12324;48.146;11.502;2024-02-15T01:26:20;3.15;;;1.95;;
24173;SDS011;12324;48.146;11.502;2024-02-15T01:28:47;4.57;;;2.10;;
24173;SDS011;12324;48.146;11.502;2024-02-15T01:31:14;5.53;;;2.17;;
24173;SDS011;12324;48.146;11.502;2024-02-15T01:33:43;6.10;;;2.30;;
24173;SDS011;12324;48.146;11.502;2024-02-15T01:36:15;4.88;;;2.33;;
24173;SDS011;12324;48.146;11.502;2024-02-15T01:38:42;6.60;;;2.05;;
24173;SDS011;12324;48.146;11.502;2024-02-15T01:41:10;3.33;;;1.60;;
24173;SDS011;12324;48.146;11.502;2024-02-15T01:43:37;5.22;;;2.15;;
24173;SDS011;12324;48.146;11.502;2024-02-15T01:46:09;6.63;;;2.28;;
24173;SDS011;12324;48.146;11.502;2024-02-15T01:48:36;4.68;;;2.13;;
24173;SDS011;12324;48.146;11.502;2024-02-15T01:51:06;6.68;;;2.10;;
24173;SDS011;12324;48.146;11.502;2024-02-15T01:53:34;4.32;;;2.05;;
24173;SDS011;12324;48.146;11.502;2024-02-15T01:56:02;5.30;;;2.38;;
24173;SDS011;12324;48.146;11.502;2024-02-15T01:58:29;5.50;;;2.15;;
24173;SDS011;12324;48.146;11.502;2024-02-15T02:01:00;6.53;;;2.08;;
24173;SDS011;12324;48.146;11.502;2024-02-15T02:03:28;3.85;;;1.80;;
24173;SDS011;12324;48.146;11.502;2024-02-15T02:05:56;8.15;;;2.15;;
24173;SDS011;12324;48.146;11.502;2024-02-15T02:08:24;4.57;;;2.10;;
24173;SDS011;12324;48.146;11.502;2024-02-15T02:10:51;4.70;;;2.17;;
24173;SDS011;12324;48.146;11.502;2024-02-15T02:13:19;7.95;;;2.42;;
24173;SDS011;12324;48.146;11.502;2024-02-15T02:15:46;5.13;;;2.25;;
24173;SDS011;12324;48.146;11.502;2024-02-15T02:18:13;3.53;;;1.95;;
24173;SDS011;12324;48.146;11.502;2024-02-15T02:20:40;4.68;;;2.10;;
24173;SDS011;12324;48.146;11.502;2024-02-15T02:23:14;5.15;;;2.00;;
24173;SDS011;12324;48.146;11.502;2024-02-15T02:25:42;3.65;;;1.80;;
24173;SDS011;12324;48.146;11.502;2024-02-15T02:28:10;4.13;;;2.22;;
24173;SDS011;12324;48.146;11.502;2024-02-15T02:30:38;4.65;;;1.88;;
24173;SDS011;12324;48.146;11.502;2024-02-15T02:33:11;5.38;;;1.92;;
24173;SDS011;12324;48.146;11.502;2024-02-15T02:35:46;4.40;;;2.20;;
24173;SDS011;12324;48.146;11.502;2024-02-15T02:38:14;5.70;;;2.85;;
24173;SDS011;12324;48.146;11.502;2024-02-15T02:40:41;7.68;;;2.95;;
24173;SDS011;12324;48.146;11.502;2024-02-15T02:43:08;7.15;;;2.70;;
24173;SDS011;12324;48.146;11.502;2024-02-15T02:45:36;4.90;;;2.20;;
24173;SDS011;12324;48.146;11.502;2024-02-15T02:48:04;3.88;;;2.22;;
24173;SDS011;12324;48.146;11.502;2024-02-15T02:50:31;5.63;;;2.00;;
24173;SDS011;12324;48.146;11.502;2024-02-15T02:52:59;4.10;;;2.03;;
24173;SDS011;12324;48.146;11.502;2024-02-15T02:55:26;6.63;;;2.40;;
24173;SDS011;12324;48.146;11.502;2024-02-15T02:57:56;5.60;;;1.92;;
24173;SDS011;12324;48.146;11.502;2024-02-15T03:00:23;7.95;;;2.35;;
24173;SDS011;12324;48.146;11.502;2024-02-15T03:02:50;5.65;;;1.98;;
24173;SDS011;12324;48.146;11.502;2024-02-15T03:05:17;4.72;;;2.38;;
24173;SDS011;12324;48.146;11.502;2024-02-15T03:07:47;7.25;;;2.47;;
24173;SDS011;12324;48.146;11.502;2024-02-15T03:10:15;5.50;;;2.55;;
24173;SDS011;12324;48.146;11.502;2024-02-15T03:12:42;5.30;;;2.20;;
24173;SDS011;12324;48.146;11.502;2024-02-15T03:15:14;3.67;;;1.95;;
24173;SDS011;12324;48.146;11.502;2024-02-15T03:17:42;6.50;;;2.42;;
24173;SDS011;12324;48.146;11.502;2024-02-15T03:20:10;5.55;;;2.38;;
24173;SDS011;12324;48.146;11.502;2024-02-15T03:22:56;6.72;;;2.58;;
24173;SDS011;12324;48.146;11.502;2024-02-15T03:25:24;5.28;;;2.25;;
24173;SDS011;12324;48.146;11.502;2024-02-15T03:27:52;4.40;;;2.25;;
24173;SDS011;12324;48.146;11.502;2024-02-15T03:30:19;6.07;;;2.40;;
24173;SDS011;12324;48.146;11.502;2024-02-15T03:32:47;4.35;;;2.25;;
24173;SDS011;12324;48.146;11.502;2024-02-15T03:35:18;5.57;;;2.08;;
24173;SDS011;12324;48.146;11.502;2024-02-15T03:37:45;5.55;;;2.25;;
24173;SDS011;12324;48.146;11.502;2024-02-15T03:40:12;8.80;;;2.40;;
24173;SDS011;12324;48.146;11.502;2024-02-15T03:42:40;5.07;;;2.50;;
24173;SDS011;12324;48.146;11.502;2024-02-15T03:45:08;4.93;;;2.30;;
24173;SDS011;12324;48.146;11.502;2024-02-15T03:47:35;6.30;;;2.50;;
24173;SDS011;12324;48.146;11.502;2024-02-15T03:50:03;8.07;;;2.75;;
24173;SDS011;12324;48.146;11.502;2024-02-15T03:52:31;4.85;;;2.08;;
24173;SDS011;12324;48.146;11.502;2024-02-15T03:54:58;3.60;;;1.95;;
24173;SDS011;12324;48.146;11.502;2024-02-15T03:57:25;8.15;;;2.05;;
24173;SDS011;12324;48.146;11.502;2024-02-15T03:59:54;4.15;;;2.00;;
24173;SDS011;12324;48.146;11.502;2024-02-15T04:02:23;8.85;;;2.47;;
24173;SDS011;12324;48.146;11.502;2024-02-15T04:04:55;3.17;;;1.88;;
24173;SDS011;12324;48.146;11.502;2024-02-15T04:07:22;5.60;;;2.50;;
24173;SDS011;12324;48.146;11.502;2024-02-15T04:09:53;3.40;;;1.95;;
24173;SDS011;12324;48.146;11.502;2024-02-15T04:12:20;6.05;;;2.45;;
24173;SDS011;12324;48.146;11.502;2024-02-15T04:14:48;5.20;;;2.17;;
24173;SDS011;12324;48.146;11.502;2024-02-15T04:17:15;4.15;;;2.13;;
24173;SDS011;12324;48.146;11.502;2024-02-15T04:19:48;7.40;;;2.42;;
24173;SDS011;12324;48.146;11.502;2024-02-15T04:22:20;12.93;;;2.67;;
24173;SDS011;12324;48.146;11.502;2024-02-15T04:24:47;6.50;;;2.78;;
24173;SDS011;12324;48.146;11.502;2024-02-15T04:27:14;4.15;;;2.15;;
24173;SDS011;12324;48.146;11.502;2024-02-15T04:29:41;6.90;;;2.58;;
24173;SDS011;12324;48.146;11.502;2024-02-15T04:32:10;5.03;;;2.20;;
24173;SDS011;12324;48.146;11.502;2024-02-15T04:34:38;5.72;;;2.72;;
24173;SDS011;12324;48.146;11.502;2024-02-15T04:37:06;3.47;;;1.92;;
24173;SDS011;12324;48.146;11.502;2024-02-15T04:39:33;4.00;;;2.00;;
24173;SDS011;12324;48.146;11.502;2024-02-15T04:42:02;4.82;;;2.38;;
24173;SDS011;12324;48.146;11.502;2024-02-15T04:44:31;5.80;;;1.92;;
24173;SDS011;12324;48.146;11.502;2024-02-15T04:47:01;4.45;;;1.95;;
24173;SDS011;12324;48.146;11.502;2024-02-15T04:49:30;6.30;;;2.58;;
24173;SDS011;12324;48.146;11.502;2024-02-15T04:51:57;7.45;;;2.55;;
24173;SDS011;12324;48.146;11.502;2024-02-15T04:54:27;7.10;;;2.28;;
24173;SDS011;12324;48.146;11.502;2024-02-15T04:56:55;5.35;;;2.13;;
24173;SDS011;12324;48.146;11.502;2024-02-15T04:59:23;4.53;;;2.03;;
24173;SDS011;12324;48.146;11.502;2024-02-15T05:01:52;5.70;;;2.10;;
24173;SDS011;12324;48.146;11.502;2024-02-15T05:04:20;2.97;;;1.95;;
24173;SDS011;12324;48.146;11.502;2024-02-15T05:06:47;8.15;;;2.53;;
24173;SDS011;12324;48.146;11.502;2024-02-15T05:09:14;3.45;;;1.95;;
24173;SDS011;12324;48.146;11.502;2024-02-15T05:11:44;4.60;;;2.40;;
24173;SDS011;12324;48.146;11.502;2024-02-15T05:14:13;3.78;;;2.03;;
24173;SDS011;12324;48.146;11.502;2024-02-15T05:16:49;5.85;;;2.33;;
24173;SDS011;12324;48.146;11.502;2024-02-15T05:19:16;9.77;;;2.92;;
24173;SDS011;12324;48.146;11.502;2024-02-15T05:21:45;5.97;;;2.25;;
24173;SDS011;12324;48.146;11.502;2024-02-15T05:24:13;7.45;;;2.85;;
24173;SDS011;12324;48.146;11.502;2024-02-15T05:26:41;4.95;;;2.05;;
24173;SDS011;12324;48.146;11.502;2024-02-15T05:29:15;5.35;;;2.40;;
24173;SDS011;12324;48.146;11.502;2024-02-15T05:31:41;5.78;;;1.80;;
24173;SDS011;12324;48.146;11.502;2024-02-15T05:34:09;4.65;;;2.30;;
24173;SDS011;12324;48.146;11.502;2024-02-15T05:36:38;5.57;;;2.22;;
24173;SDS011;12324;48.146;11.502;2024-02-15T05:39:05;5.40;;;1.90;;
24173;SDS011;12324;48.146;11.502;2024-02-15T05:41:33;6.18;;;2.20;;
24173;SDS011;12324;48.146;11.502;2024-02-15T05:44:01;5.63;;;2.03;;
24173;SDS011;12324;48.146;11.502;2024-02-15T05:46:30;3.10;;;1.40;;
24173;SDS011;12324;48.146;11.502;2024-02-15T05:48:57;5.63;;;2.00;;
24173;SDS011;12324;48.146;11.502;2024-02-15T05:51:25;5.30;;;1.88;;
24173;SDS011;12324;48.146;11.502;2024-02-15T05:53:53;4.13;;;1.92;;
24173;SDS011;12324;48.146;11.502;2024-02-15T05:56:25;6.68;;;2.20;;
24173;SDS011;12324;48.146;11.502;2024-02-15T05:58:52;3.13;;;1.70;;
24173;SDS011;12324;48.146;11.502;2024-02-15T06:01:19;5.75;;;2.45;;
24173;SDS011;12324;48.146;11.502;2024-02-15T06:03:46;5.53;;;1.88;;
24173;SDS011;12324;48.146;11.502;2024-02-15T06:06:14;4.70;;;2.15;;
24173;SDS011;12324;48.146;11.502;2024-02-15T06:08:45;8.80;;;2.28;;
24173;SDS011;12324;48.146;11.502;2024-02-15T06:11:13;6.45;;;2.45;;
24173;SDS011;12324;48.146;11.502;2024-02-15T06:13:40;3.83;;;1.92;;
24173;SDS011;12324;48.146;11.502;2024-02-15T06:16:07;6.90;;;2.70;;
24173;SDS011;12324;48.146;11.502;2024-02-15T06:18:36;9.68;;;2.60;;
24173;SDS011;12324;48.146;11.502;2024-02-15T06:21:04;6.20;;;2.33;;
24173;SDS011;12324;48.146;11.502;2024-02-15T06:23:32;5.35;;;2.40;;
24173;SDS011;12324;48.146;11.502;2024-02-15T06:25:59;6.68;;;2.22;;
24173;SDS011;12324;48.146;11.502;2024-02-15T06:28:29;9.35;;;2.58;;
24173;SDS011;12324;48.146;11.502;2024-02-15T06:31:15;6.78;;;2.70;;
24173;SDS011;12324;48.146;11.502;2024-02-15T06:34:00;9.30;;;3.30;;
24173;SDS011;12324;48.146;11.502;2024-02-15T06:39:32;6.55;;;2.60;;
24173;SDS011;12324;48.146;11.502;2024-02-15T06:42:10;8.60;;;3.35;;
24173;SDS011;12324;48.146;11.502;2024-02-15T06:44:47;7.40;;;2.55;;
24173;SDS011;12324;48.146;11.502;2024-02-15T06:47:14;6.72;;;2.60;;
24173;SDS011;12324;48.146;11.502;2024-02-15T06:49:45;6.20;;;2.67;;
24173;SDS011;12324;48.146;11.502;2024-02-15T06:52:12;6.50;;;2.60;;
24173;SDS011;12324;48.146;11.502;2024-02-15T06:54:40;12.85;;;2.53;;
24173;SDS011;12324;48.146;11.502;2024-02-15T06:57:07;7.03;;;2.50;;
24173;SDS011;12324;48.146;11.502;2024-02-15T06:59:34;4.97;;;2.10;;
24173;SDS011;12324;48.146;11.502;2024-02-15T07:02:03;4.05;;;2.30;;
24173;SDS011;12324;48.146;11.502;2024-02-15T07:04:35;13.38;;;3.30;;
24173;SDS011;12324;48.146;11.502;2024-02-15T07:07:03;12.30;;;3.10;;
24173;SDS011;12324;48.146;11.502;2024-02-15T07:09:30;11.10;;;2.70;;
24173;SDS011;12324;48.146;11.502;2024-02-15T07:11:58;8.35;;;2.78;;
24173;SDS011;12324;48.146;11.502;2024-02-15T07:14:25;9.07;;;2.58;;
24173;SDS011;12324;48.146;11.502;2024-02-15T07:16:55;5.35;;;2.60;;
24173;SDS011;12324;48.146;11.502;2024-02-15T07:19:24;6.85;;;2.28;;
24173;SDS011;12324;48.146;11.502;2024-02-15T07:21:53;8.13;;;2.53;;
24173;SDS011;12324;48.146;11.502;2024-02-15T07:24:21;7.68;;;2.28;;
24173;SDS011;12324;48.146;11.502;2024-02-15T07:26:48;7.30;;;2.22;;
24173;SDS011;12324;48.146;11.502;2024-02-15T07:29:18;7.90;;;2.53;;
24173;SDS011;12324;48.146;11.502;2024-02-15T07:31:46;3.83;;;2.05;;
24173;SDS011;12324;48.146;11.502;2024-02-15T07:34:12;6.57;;;1.92;;
24173;SDS011;12324;48.146;11.502;2024-02-15T07:36:40;4.78;;;1.65;;
24173;SDS011;12324;48.146;11.502;2024-02-15T07:39:08;4.18;;;1.98;;
24173;SDS011;12324;48.146;11.502;2024-02-15T07:41:40;6.40;;;2.03;;
24173;SDS011;12324;48.146;11.502;2024-02-15T07:44:07;5.10;;;2.53;;
24173;SDS011;12324;48.146;11.502;2024-02-15T07:46:34;3.85;;;1.73;;
24173;SDS011;12324;48.146;11.502;2024-02-15T07:49:01;6.50;;;2.03;;
24173;SDS011;12324;48.146;11.502;2024-02-15T07:51:28;5.93;;;2.55;;
24173;SDS011;12324;48.146;11.502;2024-02-15T07:53:55;8.45;;;2.25;;
24173;SDS011;12324;48.146;11.502;2024-02-15T07:56:22;6.22;;;2.17;;
24173;SDS011;12324;48.146;11.502;2024-02-15T07:58:49;4.10;;;2.03;;
24173;SDS011;12324;48.146;11.502;2024-02-15T08:01:19;3.50;;;2.05;;
24173;SDS011;12324;48.146;11.502;2024-02-15T08:03:51;5.10;;;2.20;;
24173;SDS011;12324;48.146;11.502;2024-02-15T08:06:21;6.60;;;2.03;;
24173;SDS011;12324;48.146;11.502;2024-02-15T08:08:51;4.13;;;1.80;;
24173;SDS011;12324;48.146;11.502;2024-02-15T08:11:19;5.32;;;2.08;;
24173;SDS011;12324;48.146;11.502;2024-02-15T08:13:47;3.88;;;1.92;;
24173;SDS011;12324;48.146;11.502;2024-02-15T08:16:16;6.97;;;2.10;;
24173;SDS011;12324;48.146;11.502;2024-02-15T08:18:43;12.23;;;2.63;;
24173;SDS011;12324;48.146;11.502;2024-02-15T08:21:13;4.63;;;2.28;;
24173;SDS011;12324;48.146;11.502;2024-02-15T08:23:41;4.60;;;2.05;;
24173;SDS011;12324;48.146;11.502;2024-02-15T08:26:08;5.93;;;2.10;;
24173;SDS011;12324;48.146;11.502;2024-02-15T08:28:37;5.78;;;2.22;;
24173;SDS011;12324;48.146;11.502;2024-02-15T08:31:04;7.65;;;2.45;;
24173;SDS011;12324;48.146;11.502;2024-02-15T08:33:33;4.03;;;2.10;;
24173;SDS011;12324;48.146;11.502;2024-02-15T08:36:02;5.60;;;2.15;;
24173;SDS011;12324;48.146;11.502;2024-02-15T08:38:30;6.65;;;1.90;;
24173;SDS011;12324;48.146;11.502;2024-02-15T08:40:57;6.18;;;2.03;;
24173;SDS011;12324;48.146;11.502;2024-02-15T08:43:24;5.95;;;2.33;;
24173;SDS011;12324;48.146;11.502;2024-02-15T08:45:51;12.13;;;2.90;;
24173;SDS011;12324;48.146;11.502;2024-02-15T08:48:19;6.22;;;2.47;;
24173;SDS011;12324;48.146;11.502;2024-02-15T08:50:48;7.63;;;2.45;;
24173;SDS011;12324;48.146;11.502;2024-02-15T08:53:16;10.20;;;2.33;;
24173;SDS011;12324;48.146;11.502;2024-02-15T08:55:45;7.45;;;2.22;;
24173;SDS011;12324;48.146;11.502;2024-02-15T08:58:12;9.13;;;2.28;;
24173;SDS011;12324;48.146;11.502;2024-02-15T09:00:40;6.32;;;2.28;;
24173;SDS011;12324;48.146;11.502;2024-02-15T09:03:11;5.00;;;2.63;;
24173;SDS011;12324;48.146;11.502;2024-02-15T09:05:39;5.93;;;2.22;;
24173;SDS011;12324;48.146;11.502;2024-02-15T09:08:09;6.82;;;2.80;;
24173;SDS011;12324;48.146;11.502;2024-02-15T09:10:37;9.18;;;2.58;;
24173;SDS011;12324;48.146;11.502;2024-02-15T09:13:05;11.00;;;2.53;;
24173;SDS011;12324;48.146;11.502;2024-02-15T09:15:33;8.98;;;2.53;;
24173;SDS011;12324;48.146;11.502;2024-02-15T09:18:00;14.30;;;3.08;;
24173;SDS011;12324;48.146;11.502;2024-02-15T09:20:27;4.57;;;1.83;;
24173;SDS011;12324;48.146;11.502;2024-02-15T09:22:55;4.78;;;2.13;;
24173;SDS011;12324;48.146;11.502;2024-02-15T09:25:22;12.07;;;3.00;;
24173;SDS011;12324;48.146;11.502;2024-02-15T09:27:50;9.40;;;2.67;;
24173;SDS011;12324;48.146;11.502;2024-02-15T09:30:17;5.10;;;2.53;;
24173;SDS011;12324;48.146;11.502;2024-02-15T09:32:45;5.05;;;2.30;;
24173;SDS011;12324;48.146;11.502;2024-02-15T09:35:12;6.10;;;2.50;;
24173;SDS011;12324;48.146;11.502;2024-02-15T09:37:44;6.32;;;2.38;;
24173;SDS011;12324;48.146;11.502;2024-02-15T09:40:15;4.85;;;2.40;;
24173;SDS011;12324;48.146;11.502;2024-02-15T09:42:44;6.70;;;2.30;;
24173;SDS011;12324;48.146;11.502;2024-02-15T09:45:12;6.07;;;2.30;;
24173;SDS011;12324;48.146;11.502;2024-02-15T09:47:41;4.68;;;2.20;;
24173;SDS011;12324;48.146;11.502;2024-02-15T09:50:12;7.95;;;2.47;;
24173;SDS011;12324;48.146;11.502;2024-02-15T09:52:50;7.93;;;2.78;;
24173;SDS011;12324;48.146;11.502;2024-02-15T09:55:19;3.50;;;1.88;;
24173;SDS011;12324;48.146;11.502;2024-02-15T09:57:49;3.65;;;1.90;;
24173;SDS011;12324;48.146;11.502;2024-02-15T10:00:17;4.43;;;1.98;;
24173;SDS011;12324;48.146;11.502;2024-02-15T10:02:46;4.72;;;1.90;;
24173;SDS011;12324;48.146;11.502;2024-02-15T10:05:14;3.10;;;1.52;;
24173;SDS011;12324;48.146;11.502;2024-02-15T10:07:43;4.93;;;1.90;;
24173;SDS011;12324;48.146;11.502;2024-02-15T10:12:42;5.55;;;2.00;;
24173;SDS011;12324;48.146;11.502;2024-02-15T10:15:10;4.07;;;1.75;;
24173;SDS011;12324;48.146;11.502;2024-02-15T10:17:37;2.40;;;1.40;;
24173;SDS011;12324;48.146;11.502;2024-02-15T10:20:04;4.70;;;1.75;;
24173;SDS011;12324;48.146;11.502;2024-02-15T10:22:32;3.58;;;1.42;;
24173;SDS011;12324;48.146;11.502;2024-02-15T10:25:33;3.10;;;1.40;;
24173;SDS011;12324;48.146;11.502;2024-02-15T10:28:08;3.15;;;1.52;;
24173;SDS011;12324;48.146;11.502;2024-02-15T10:30:36;9.38;;;1.80;;
24173;SDS011;12324;48.146;11.502;2024-02-15T10:33:10;1.63;;;1.17;;
24173;SDS011;12324;48.146;11.502;2024-02-15T10:35:46;3.00;;;1.50;;
24173;SDS011;12324;48.146;11.502;2024-02-15T10:38:13;3.65;;;1.40;;
24173;SDS011;12324;48.146;11.502;2024-02-15T10:40:44;3.40;;;1.20;;
24173;SDS011;12324;48.146;11.502;2024-02-15T10:43:13;3.30;;;1.38;;
24173;SDS011;12324;48.146;11.502;2024-02-15T10:45:42;4.82;;;1.70;;
24173;SDS011;12324;48.146;11.502;2024-02-15T10:48:11;2.67;;;1.38;;
24173;SDS011;12324;48.146;11.502;2024-02-15T10:50:39;3.92;;;1.38;;
24173;SDS011;12324;48.146;11.502;2024-02-15T10:53:21;2.60;;;1.20;;
24173;SDS011;12324;48.146;11.502;2024-02-15T10:58:32;2.28;;;1.20;;
24173;SDS011;12324;48.146;11.502;2024-02-15T11:01:06;3.97;;;1.27;;
24173;SDS011;12324;48.146;11.502;2024-02-15T11:03:36;5.07;;;1.67;;
24173;SDS011;12324;48.146;11.502;2024-02-15T11:06:13;3.20;;;1.30;;
24173;SDS011;12324;48.146;11.502;2024-02-15T11:08:42;2.28;;;1.02;;
24173;SDS011;12324;48.146;11.502;2024-02-15T11:11:10;3.10;;;1.17;;
24173;SDS011;12324;48.146;11.502;2024-02-15T11:13:40;2.78;;;1.38;;
24173;SDS011;12324;48.146;11.502;2024-02-15T11:16:10;3.42;;;1.48;;
24173;SDS011;12324;48.146;11.502;2024-02-15T11:19:10;5.68;;;1.25;;
24173;SDS011;12324;48.146;11.502;2024-02-15T11:21:53;1.90;;;1.17;;
24173;SDS011;12324;48.146;11.502;2024-02-15T11:24:30;3.23;;;1.03;;
24173;SDS011;12324;48.146;11.502;2024-02-15T11:27:04;3.15;;;1.30;;
24173;SDS011;12324;48.146;11.502;2024-02-15T11:35:21;3.28;;;1.20;;
24173;SDS011;12324;48.146;11.502;2024-02-15T11:43:08;7.13;;;1.55;;
24173;SDS011;12324;48.146;11.502;2024-02-15T11:45:37;3.85;;;1.30;;
24173;SDS011;12324;48.146;11.502;2024-02-15T11:48:07;2.25;;;1.00;;
24173;SDS011;12324;48.146;11.502;2024-02-15T11:50:39;2.35;;;1.27;;
24173;SDS011;12324;48.146;11.502;2024-02-15T11:53:07;2.38;;;1.30;;
24173;SDS011;12324;48.146;11.502;2024-02-15T11:55:39;2.40;;;0.95;;
24173;SDS011;12324;48.146;11.502;2024-02-15T11:58:08;2.17;;;1.08;;
24173;SDS011;12324;48.146;11.502;2024-02-15T12:00:38;3.88;;;1.17;;
24173;SDS011;12324;48.146;11.502;2024-02-15T12:03:24;3.22;;;1.13;;
24173;SDS011;12324;48.146;11.502;2024-02-15T12:06:30;4.13;;;1.40;;
24173;SDS011;12324;48.146;11.502;2024-02-15T12:09:19;3.08;;;1.20;;
24173;SDS011;12324;48.146;11.502;2024-02-15T12:12:05;2.97;;;1.05;;
24173;SDS011;12324;48.146;11.502;2024-02-15T12:14:58;3.22;;;1.52;;
24173;SDS011;12324;48.146;11.502;2024-02-15T12:17:47;5.40;;;1.35;;
24173;SDS011;12324;48.146;11.502;2024-02-15T12:20:33;2.28;;;1.05;;
24173;SDS011;12324;48.146;11.502;2024-02-15T12:23:01;4.05;;;1.30;;
24173;SDS011;12324;48.146;11.502;2024-02-15T12:25:27;4.80;;;1.52;;
24173;SDS011;12324;48.146;11.502;2024-02-15T12:27:55;3.63;;;1.27;;
24173;SDS011;12324;48.146;11.502;2024-02-15T12:30:23;3.95;;;1.20;;
24173;SDS011;12324;48.146;11.502;2024-02-15T12:32:52;3.83;;;1.70;;
24173;SDS011;12324;48.146;11.502;2024-02-15T12:35:35;9.23;;;2.38;;
24173;SDS011;12324;48.146;11.502;2024-02-15T12:38:02;5.90;;;2.42;;
24173;SDS011;12324;48.146;11.502;2024-02-15T12:40:35;3.45;;;1.33;;
24173;SDS011;12324;48.146;11.502;2024-02-15T12:43:05;3.38;;;1.42;;
24173;SDS011;12324;48.146;11.502;2024-02-15T12:45:38;2.08;;;1.13;;
24173;SDS011;12324;48.146;11.502;2024-02-15T12:48:07;2.70;;;1.20;;
24173;SDS011;12324;48.146;11.502;2024-02-15T12:50:35;2.30;;;1.42;;
24173;SDS011;12324;48.146;11.502;2024-02-15T12:53:02;6.18;;;1.23;;
24173;SDS011;12324;48.146;11.502;2024-02-15T12:55:30;2.08;;;1.17;;
24173;SDS011;12324;48.146;11.502;2024-02-15T12:58:01;2.72;;;0.82;;
24173;SDS011;12324;48.146;11.502;2024-02-15T13:00:35;5.28;;;1.35;;
24173;SDS011;12324;48.146;11.502;2024-02-15T13:03:06;2.58;;;1.20;;
24173;SDS011;12324;48.146;11.502;2024-02-15T13:05:38;3.75;;;1.33;;
24173;SDS011;12324;48.146;11.502;2024-02-15T13:08:06;3.72;;;1.50;;
24173;SDS011;12324;48.146;11.502;2024-02-15T13:10:39;2.92;;;1.00;;
24173;SDS011;12324;48.146;11.502;2024-02-15T13:13:06;2.75;;;1.25;;
24173;SDS011;12324;48.146;11.502;2024-02-15T13:15:35;5.47;;;1.38;;
24173;SDS011;12324;48.146;11.502;2024-02-15T13:18:03;3.22;;;1.27;;
24173;SDS011;12324;48.146;11.502;2024-02-15T13:20:32;3.30;;;1.10;;
24173;SDS011;12324;48.146;11.502;2024-02-15T13:23:01;5.13;;;1.25;;
24173;SDS011;12324;48.146;11.502;2024-02-15T13:25:35;2.53;;;1.02;;
24173;SDS011;12324;48.146;11.502;2024-02-15T13:28:03;2.67;;;1.50;;
24173;SDS011;12324;48.146;11.502;2024-02-15T13:30:31;3.30;;;1.35;;
24173;SDS011;12324;48.146;11.502;2024-02-15T13:33:02;4.15;;;1.33;;
24173;SDS011;12324;48.146;11.502;2024-02-15T13:35:29;3.10;;;1.17;;
24173;SDS011;12324;48.146;11.502;2024-02-15T13:37:56;4.28;;;1.48;;
24173;SDS011;12324;48.146;11.502;2024-02-15T13:40:27;3.47;;;1.73;;
24173;SDS011;12324;48.146;11.502;2024-02-15T13:42:56;4.53;;;1.40;;
24173;SDS011;12324;48.146;11.502;2024-02-15T13:45:31;7.18;;;1.70;;
24173;SDS011;12324;48.146;11.502;2024-02-15T13:47:59;4.45;;;1.55;;
24173;SDS011;12324;48.146;11.502;2024-02-15T13:50:31;5.28;;;1.65;;
24173;SDS011;12324;48.146;11.502;2024-02-15T13:52:59;2.20;;;0.98;;
24173;SDS011;12324;48.146;11.502;2024-02-15T13:55:26;4.70;;;1.27;;
24173;SDS011;12324;48.146;11.502;2024-02-15T13:57:54;2.83;;;1.20;;
24173;SDS011;12324;48.146;11.502;2024-02-15T14:00:25;4.13;;;1.20;;
24173;SDS011;12324;48.146;11.502;2024-02-15T14:03:01;2.75;;;1.30;;
24173;SDS011;12324;48.146;11.502;2024-02-15T14:05:29;2.60;;;1.13;;
24173;SDS011;12324;48.146;11.502;2024-02-15T14:07:58;3.97;;;1.40;;
24173;SDS011;12324;48.146;11.502;2024-02-15T14:10:27;3.50;;;1.40;;
24173;SDS011;12324;48.146;11.502;2024-02-15T14:12:55;1.67;;;0.90;;
24173;SDS011;12324;48.146;11.502;2024-02-15T14:15:24;2.95;;;1.17;;
24173;SDS011;12324;48.146;11.502;2024-02-15T14:17:52;2.63;;;0.98;;
24173;SDS011;12324;48.146;11.502;2024-02-15T14:20:19;6.53;;;1.42;;
24173;SDS011;12324;48.146;11.502;2024-02-15T14:22:48;4.38;;;1.42;;
24173;SDS011;12324;48.146;11.502;2024-02-15T14:25:23;3.33;;;1.30;;
24173;SDS011;12324;48.146;11.502;2024-02-15T14:27:53;4.35;;;1.70;;
24173;SDS011;12324;48.146;11.502;2024-02-15T14:30:21;4.95;;;1.70;;
24173;SDS011;12324;48.146;11.502;2024-02-15T14:33:07;6.93;;;2.65;;
24173;SDS011;12324;48.146;11.502;2024-02-15T14:35:45;6.53;;;1.67;;
24173;SDS011;12324;48.146;11.502;2024-02-15T14:38:13;2.97;;;1.58;;
24173;SDS011;12324;48.146;11.502;2024-02-15T14:40:45;6.35;;;1.83;;
24173;SDS011;12324;48.146;11.502;2024-02-15T14:43:19;5.22;;;1.40;;
24173;SDS011;12324;48.146;11.502;2024-02-15T14:45:48;3.08;;;1.10;;
24173;SDS011;12324;48.146;11.502;2024-02-15T14:48:15;3.67;;;1.60;;
24173;SDS011;12324;48.146;11.502;2024-02-15T14:50:45;4.60;;;1.40;;
24173;SDS011;12324;48.146;11.502;2024-02-15T14:53:12;3.70;;;1.60;;
24173;SDS011;12324;48.146;11.502;2024-02-15T14:55:41;3.78;;;1.52;;
24173;SDS011;12324;48.146;11.502;2024-02-15T14:58:12;1.40;;;1.10;;
24173;SDS011;12324;48.146;11.502;2024-02-15T15:00:41;4.55;;;1.30;;
24173;SDS011;12324;48.146;11.502;2024-02-15T15:03:10;2.55;;;1.33;;
24173;SDS011;12324;48.146;11.502;2024-02-15T15:05:40;4.05;;;1.30;;
24173;SDS011;12324;48.146;11.502;2024-02-15T15:08:26;6.53;;;1.80;;